Time;durP1;ratioP1;P1;durP2;ratioP2;P2;SDS_P1;SDS_P2;PMS_P1;PMS_P2;Temp;Humidity;BMP_temperature;BMP_pressure;BME280_temperature;BME280_humidity;BME280_pressure;Samples;Min_cycle;Max_cycle;Signal;HPM_P1;HPM_P2
2023/10/08 00:01:55;;;;;;;45.35;10.00;;;;;;;16.93;51.17;100791.63;4988359;28;20033;-79
2023/10/08 00:04:21;;;;;;;22.90;9.82;;;;;;;17.01;50.41;100788.94;5025314;28;20064;-78
2023/10/08 00:06:47;;;;;;;20.15;8.35;;;;;;;16.92;50.32;100784.50;5049697;28;20501;-79
2023/10/08 00:09:14;;;;;;;30.75;8.88;;;;;;;16.92;49.49;100790.78;5050191;28;20024;-79
2023/10/08 00:11:40;;;;;;;17.40;7.85;;;;;;;16.94;48.86;100779.75;5049775;28;20063;-79
2023/10/08 00:14:09;;;;;;;45.30;7.20;;;;;;;16.92;48.56;100777.19;5050149;28;20029;-80
2023/10/08 00:16:35;;;;;;;22.98;7.72;;;;;;;16.93;47.93;100780.78;5049941;28;20033;-78
2023/10/08 00:19:08;;;;;;;25.17;7.32;;;;;;;16.85;47.29;100773.41;5049542;28;20055;-79
2023/10/08 00:21:35;;;;;;;29.65;7.45;;;;;;;16.94;46.67;100771.63;5049642;28;20424;-79
2023/10/08 00:24:05;;;;;;;23.38;8.25;;;;;;;16.88;46.47;100757.66;5050052;28;20033;-79
2023/10/08 00:26:31;;;;;;;17.88;6.28;;;;;;;16.85;46.11;100741.66;5049718;28;20077;-79
2023/10/08 00:28:59;;;;;;;26.52;7.30;;;;;;;17.09;45.69;100768.13;5050992;28;20071;-79
2023/10/08 00:31:32;;;;;;;16.27;7.25;;;;;;;17.10;45.66;100766.22;5053673;28;20111;-79
2023/10/08 00:33:58;;;;;;;16.08;7.93;;;;;;;17.19;45.48;100766.09;5019564;28;20045;-79
2023/10/08 00:36:24;;;;;;;29.10;9.40;;;;;;;17.12;45.09;100737.91;5053763;28;20021;-79
2023/10/08 00:38:58;;;;;;;27.90;9.35;;;;;;;17.16;45.17;100731.09;5053120;28;20104;-79
2023/10/08 00:41:27;;;;;;;22.80;8.27;;;;;;;17.36;45.01;100748.84;5053134;28;20064;-79
2023/10/08 00:43:55;;;;;;;20.90;7.10;;;;;;;17.28;45.35;100732.50;5053588;28;20072;-79
2023/10/08 00:46:29;;;;;;;20.83;7.28;;;;;;;17.39;45.27;100751.25;5053461;28;20124;-79
2023/10/08 00:48:55;;;;;;;19.65;7.63;;;;;;;17.36;45.00;100735.25;5052793;28;20025;-80
2023/10/08 00:51:40;;;;;;;21.17;7.38;;;;;;;17.47;44.46;100731.34;5053059;28;20570;-80
2023/10/08 00:54:07;;;;;;;14.38;6.95;;;;;;;17.50;43.85;100732.88;5053132;28;20021;-80
2023/10/08 00:56:49;;;;;;;21.02;7.25;;;;;;;17.50;43.49;100714.72;5053145;28;20025;-80
2023/10/08 00:59:15;;;;;;;23.52;6.53;;;;;;;17.63;43.26;100726.00;5037586;28;20029;-80
2023/10/08 01:04:34;;;;;;;18.38;6.22;;;;;;;17.65;42.99;100720.38;5010499;28;20053;-80
2023/10/08 01:07:16;;;;;;;21.00;6.78;;;;;;;17.76;42.79;100730.94;5010002;28;20488;-79
2023/10/08 01:09:42;;;;;;;24.13;8.93;;;;;;;17.76;42.82;100722.78;5010240;28;20096;-79
2023/10/08 01:12:18;;;;;;;20.67;8.10;;;;;;;17.67;42.70;100704.75;5010498;28;20033;-79
2023/10/08 01:14:43;;;;;;;34.28;9.30;;;;;;;17.61;42.72;100697.25;5009458;28;20026;-78
2023/10/08 01:17:14;;;;;;;22.08;7.65;;;;;;;17.80;42.62;100716.81;5010368;28;20405;-79
2023/10/08 01:19:42;;;;;;;17.92;7.07;;;;;;;17.79;42.93;100719.72;5010515;28;20034;-79
2023/10/08 01:22:08;;;;;;;26.65;8.45;;;;;;;17.49;42.90;100674.09;4993687;28;20065;-81
2023/10/08 01:24:37;;;;;;;22.98;6.70;;;;;;;17.78;42.70;100718.00;5010337;28;20069;-80
2023/10/08 01:27:09;;;;;;;27.88;7.20;;;;;;;17.58;42.75;100681.28;5010234;28;20092;-79
2023/10/08 01:29:36;;;;;;;20.90;8.10;;;;;;;17.59;42.85;100691.13;5009137;28;20166;-80
2023/10/08 01:32:02;;;;;;;27.13;6.72;;;;;;;17.73;42.86;100696.78;5010070;28;20506;-81
2023/10/08 01:34:30;;;;;;;18.77;6.88;;;;;;;17.80;42.71;100694.19;5009959;28;20030;-80
2023/10/08 01:37:01;;;;;;;22.35;6.82;;;;;;;17.86;42.56;100704.41;5010181;28;20062;-80
2023/10/08 01:39:27;;;;;;;16.98;5.78;;;;;;;17.80;42.42;100694.19;5009553;28;20026;-79
2023/10/08 01:41:52;;;;;;;26.90;7.28;;;;;;;17.84;42.62;100684.69;5035483;28;20044;-79
2023/10/08 01:44:18;;;;;;;17.98;7.55;;;;;;;17.78;42.62;100679.94;5051874;28;20416;-80
2023/10/08 01:46:43;;;;;;;16.65;6.78;;;;;;;17.84;42.68;100685.53;5034271;28;20036;-80
2023/10/08 01:49:14;;;;;;;21.38;7.18;;;;;;;17.65;42.90;100650.50;5052246;28;20040;-79
2023/10/08 01:51:46;;;;;;;15.77;6.50;;;;;;;17.71;43.04;100663.41;5051805;28;20040;-80
2023/10/08 01:54:17;;;;;;;18.08;6.45;;;;;;;17.62;43.21;100660.88;5051741;28;20104;-80
2023/10/08 01:56:43;;;;;;;16.10;7.28;;;;;;;17.63;43.28;100670.75;5051884;28;20581;-80
2023/10/08 01:59:16;;;;;;;18.83;6.55;;;;;;;17.60;43.48;100671.94;5051909;28;20115;-80
2023/10/08 02:01:42;;;;;;;15.55;7.25;;;;;;;17.56;43.32;100661.53;5051717;28;20036;-80
2023/10/08 02:04:09;;;;;;;19.27;7.28;;;;;;;17.49;43.53;100642.28;5051271;28;20025;-80
2023/10/08 02:06:35;;;;;;;22.33;7.40;;;;;;;17.58;43.42;100664.97;5052022;28;20089;-80
2023/10/08 02:09:07;;;;;;;19.52;7.68;;;;;;;17.61;43.39;100667.34;5051663;28;20021;-79
2023/10/08 02:11:50;;;;;;;30.38;7.97;;;;;;;17.60;43.52;100658.34;5051330;28;20040;-80
2023/10/08 02:14:16;;;;;;;21.42;6.95;;;;;;;17.52;43.58;100644.69;5000751;28;20076;-79
2023/10/08 02:16:44;;;;;;;21.83;6.78;;;;;;;17.57;43.48;100649.66;5051394;28;20033;-79
2023/10/08 02:19:10;;;;;;;22.60;6.68;;;;;;;17.60;43.86;100650.16;5051263;28;20060;-79
2023/10/08 02:21:39;;;;;;;29.10;6.47;;;;;;;17.63;43.90;100648.97;4999486;28;20048;-80
2023/10/08 02:24:07;;;;;;;23.13;6.60;;;;;;;17.64;44.15;100647.97;5051467;28;20035;-79
2023/10/08 02:26:34;;;;;;;33.33;7.55;;;;;;;17.60;44.25;100641.16;5051178;28;20112;-79
2023/10/08 02:29:00;;;;;;;16.75;6.63;;;;;;;17.56;44.47;100637.91;5051078;28;20504;-79
2023/10/08 02:31:25;;;;;;;24.23;6.65;;;;;;;17.61;44.52;100637.44;5051286;28;20053;-80
2023/10/08 02:33:51;;;;;;;17.70;7.30;;;;;;;17.67;44.61;100634.03;5051069;28;20095;-80
2023/10/08 02:36:16;;;;;;;17.30;6.32;;;;;;;17.76;44.53;100639.31;5050664;28;20033;-80
2023/10/08 02:38:42;;;;;;;86.68;14.60;;;;;;;17.76;44.56;100649.31;5051019;28;20024;-80
2023/10/08 02:41:07;;;;;;;21.42;7.40;;;;;;;17.79;44.63;100640.81;5051111;28;20064;-80
2023/10/08 02:43:34;;;;;;;12.88;7.00;;;;;;;17.65;45.07;100615.16;5050673;28;20029;-79
2023/10/08 02:46:00;;;;;;;20.90;6.45;;;;;;;17.69;44.94;100627.38;5050959;28;20037;-79
2023/10/08 02:48:27;;;;;;;20.52;6.10;;;;;;;17.84;44.82;100638.44;5050555;28;20025;-79
2023/10/08 02:50:54;;;;;;;24.48;6.38;;;;;;;17.77;44.73;100624.66;5050718;28;20049;-80
2023/10/08 02:53:20;;;;;;;15.05;6.50;;;;;;;17.87;44.51;100629.91;5050696;28;20100;-78
2023/10/08 02:55:46;;;;;;;22.83;6.65;;;;;;;17.84;44.50;100631.13;5051108;28;20036;-79
2023/10/08 02:58:15;;;;;;;17.90;5.82;;;;;;;17.85;44.42;100632.84;5050487;28;20033;-79
2023/10/08 03:00:47;;;;;;;16.60;7.13;;;;;;;17.95;44.03;100638.06;5051084;28;20094;-79
2023/10/08 03:03:18;;;;;;;17.77;6.57;;;;;;;17.86;44.02;100612.75;5052047;28;20048;-79
2023/10/08 03:05:46;;;;;;;19.70;7.05;;;;;;;17.82;44.25;100610.56;5051359;28;20293;-80
2023/10/08 03:08:12;;;;;;;18.13;6.30;;;;;;;17.99;43.96;100624.97;5050542;28;20025;-79
2023/10/08 03:10:39;;;;;;;14.05;7.18;;;;;;;17.93;43.96;100618.34;5050788;28;20102;-79
2023/10/08 03:13:06;;;;;;;15.18;6.45;;;;;;;17.93;44.13;100619.22;5050350;28;20052;-79
2023/10/08 03:15:40;;;;;;;17.13;6.68;;;;;;;17.90;44.14;100605.94;5049862;28;20082;-79
2023/10/08 03:18:14;;;;;;;26.50;7.63;;;;;;;18.03;43.99;100619.03;5050592;28;20025;-79
2023/10/08 03:20:45;;;;;;;38.15;6.88;;;;;;;18.03;43.97;100619.03;5049786;28;20445;-79
2023/10/08 03:23:22;;;;;;;18.65;6.40;;;;;;;18.01;44.05;100610.16;5049967;28;20029;-79
2023/10/08 03:25:56;;;;;;;14.07;6.40;;;;;;;18.06;43.80;100610.50;5049861;28;20021;-79
2023/10/08 03:28:24;;;;;;;22.25;6.65;;;;;;;17.95;43.64;100583.63;5050388;28;20131;-79
2023/10/08 03:31:02;;;;;;;20.58;6.40;;;;;;;18.07;43.71;100597.75;5050033;28;20049;-79
2023/10/08 03:33:37;;;;;;;19.45;6.05;;;;;;;17.86;43.68;100571.06;5049662;28;20491;-79
2023/10/08 03:36:33;;;;;;;23.23;7.15;;;;;;;17.95;43.80;100578.19;5050064;28;20112;-79
2023/10/08 03:39:09;;;;;;;14.00;6.45;;;;;;;18.04;43.97;100598.94;5049923;28;20021;-79
2023/10/08 03:41:39;;;;;;;18.90;6.80;;;;;;;17.84;44.00;100560.38;5050107;28;20029;-79
2023/10/08 03:44:06;;;;;;;20.38;6.78;;;;;;;18.06;43.91;100591.47;5050528;28;20021;-78
2023/10/08 03:46:39;;;;;;;20.90;7.80;;;;;;;17.86;44.23;100568.34;5049899;28;20029;-78
2023/10/08 03:49:24;;;;;;;21.15;7.30;;;;;;;17.86;44.15;100568.34;5049923;28;20032;-79
2023/10/08 03:51:57;;;;;;;18.58;7.15;;;;;;;17.96;44.07;100585.34;5050137;28;20033;-79
2023/10/08 03:54:35;;;;;;;21.20;7.60;;;;;;;17.90;44.34;100581.47;5033366;28;20021;-78
2023/10/08 03:57:03;;;;;;;15.65;7.30;;;;;;;17.88;44.43;100577.22;5059768;28;20032;-79
2023/10/08 03:59:33;;;;;;;26.23;7.65;;;;;;;17.77;44.47;100570.25;5055080;28;20044;-79
2023/10/08 04:02:22;;;;;;;18.45;6.43;;;;;;;17.70;44.44;100573.84;5054152;28;20143;-79
2023/10/08 04:04:57;;;;;;;23.88;9.00;;;;;;;17.70;44.39;100574.69;5055830;28;20083;-79
2023/10/08 04:07:28;;;;;;;33.03;9.85;;;;;;;17.64;44.53;100575.38;5054440;28;20461;-80
2023/10/08 04:12:41;;;;;;;23.30;10.50;;;;;;;17.48;44.51;100548.16;5054256;28;20029;-79
2023/10/08 04:15:07;;;;;;;22.93;8.33;;;;;;;17.58;44.59;100575.22;5053474;28;20499;-79
2023/10/08 04:17:43;;;;;;;21.17;7.60;;;;;;;17.57;44.60;100584.38;5035280;28;20271;-80
2023/10/08 04:20:33;;;;;;;19.65;7.38;;;;;;;17.56;44.92;100585.41;5053625;28;20427;-80
2023/10/08 04:23:00;;;;;;;20.77;7.55;;;;;;;17.55;45.05;100586.44;5053537;28;20021;-80
2023/10/08 04:25:27;;;;;;;17.52;7.65;;;;;;;17.54;45.11;100584.69;5053278;28;20049;-80
2023/10/08 04:27:54;;;;;;;27.45;8.27;;;;;;;17.51;45.35;100574.16;5052899;28;20025;-80
2023/10/08 04:30:22;;;;;;;16.63;6.78;;;;;;;17.55;45.37;100581.00;5010115;28;20176;-80
2023/10/08 04:32:52;;;;;;;20.48;7.43;;;;;;;17.61;45.11;100577.59;5010726;28;20421;-80
2023/10/08 04:35:19;;;;;;;18.88;6.93;;;;;;;17.29;44.79;100516.72;5011148;28;20040;-81
2023/10/08 04:37:45;;;;;;;24.90;7.05;;;;;;;17.72;44.86;100567.22;5010601;28;20042;-79
2023/10/08 04:40:16;;;;;;;33.15;7.63;;;;;;;17.65;44.85;100559.88;5011224;28;20515;-79
2023/10/08 04:42:44;;;;;;;18.63;7.13;;;;;;;17.72;44.99;100571.78;4990929;28;20448;-79
2023/10/08 04:45:13;;;;;;;16.33;7.95;;;;;;;17.69;44.98;100574.84;4991132;28;20069;-78
2023/10/08 04:47:42;;;;;;;16.27;7.05;;;;;;;17.65;44.82;100576.22;4991503;28;20753;-80
2023/10/08 04:50:16;;;;;;;25.23;7.63;;;;;;;17.61;45.18;100566.72;4991200;28;20517;-80
2023/10/08 04:52:58;;;;;;;27.92;8.10;;;;;;;17.60;45.20;100567.72;4990817;28;20044;-80
2023/10/08 04:55:28;;;;;;;28.25;7.07;;;;;;;17.62;45.29;100565.66;4990988;28;20038;-79
2023/10/08 04:57:58;;;;;;;26.40;7.32;;;;;;;17.66;45.19;100567.03;4990883;28;20042;-79
2023/10/08 05:00:50;;;;;;;17.00;6.93;;;;;;;17.68;45.08;100559.53;4990220;28;20155;-79
2023/10/08 05:03:16;;;;;;;30.45;8.07;;;;;;;17.76;45.03;100573.16;4990592;28;20744;-79
2023/10/08 05:05:55;;;;;;;16.40;7.15;;;;;;;17.76;45.16;100562.28;4991061;28;20164;-80
2023/10/08 05:08:32;;;;;;;42.60;9.65;;;;;;;17.82;45.11;100567.03;5005008;28;20129;-78
2023/10/08 05:11:10;;;;;;;37.03;8.93;;;;;;;17.84;45.03;100554.94;5010434;28;20041;-78
2023/10/08 05:13:45;;;;;;;21.40;8.60;;;;;;;17.89;45.06;100576.16;5010333;28;20049;-78
2023/10/08 05:16:35;;;;;;;25.65;8.38;;;;;;;17.86;45.13;100557.47;5008976;28;20030;-78
2023/10/08 05:19:24;;;;;;;19.48;7.85;;;;;;;17.92;45.09;100562.22;5012806;28;20072;-79
2023/10/08 05:22:01;;;;;;;13.57;6.80;;;;;;;17.92;45.12;100573.09;5052349;28;20025;-80
2023/10/08 05:24:37;;;;;;;39.33;9.25;;;;;;;17.90;44.94;100551.53;5052569;28;20033;-78
2023/10/08 05:27:37;;;;;;;19.38;7.70;;;;;;;18.06;44.61;100566.97;5052065;28;20027;-78
2023/10/08 05:32:46;;;;;;;19.45;6.75;;;;;;;17.94;44.60;100549.31;5051891;28;20095;-80
2023/10/08 05:38:12;;;;;;;29.23;8.98;;;;;;;18.14;44.61;100566.06;5051870;28;20208;-80
2023/10/08 05:43:37;;;;;;;17.95;7.90;;;;;;;18.12;45.01;100540.91;5051804;28;20553;-78
2023/10/08 05:49:15;;;;;;;22.20;7.63;;;;;;;18.32;44.83;100556.66;5050427;28;20028;-78
2023/10/08 05:59:38;;;;;;;17.73;8.52;;;;;;;18.48;44.09;100547.56;5049658;28;20416;-77
2023/10/08 06:02:27;;;;;;;21.13;9.32;;;;;;;18.55;44.21;100548.59;5047297;28;20469;-76
2023/10/08 06:05:20;;;;;;;19.10;7.82;;;;;;;18.59;43.96;100533.56;5047864;28;20029;-77
2023/10/08 06:07:56;;;;;;;25.95;8.88;;;;;;;18.80;43.93;100552.03;5026269;28;20051;-80
2023/10/08 06:18:26;;;;;;;23.85;7.68;;;;;;;19.13;42.84;100558.97;5051018;28;20087;-77
2023/10/08 06:21:15;;;;;;;20.58;8.00;;;;;;;19.19;42.61;100547.31;5050883;28;20028;-74
2023/10/08 06:23:42;;;;;;;33.00;8.20;;;;;;;19.27;42.47;100538.22;5050212;28;20427;-74
2023/10/08 06:28:38;;;;;;;18.02;8.30;;;;;;;19.44;42.14;100537.94;5050077;28;20480;-76
2023/10/08 06:31:11;;;;;;;22.40;8.20;;;;;;;19.55;41.84;100539.38;5049921;28;20048;-76
2023/10/08 06:33:38;;;;;;;34.08;12.15;;;;;;;19.68;41.84;100541.47;5033969;28;20029;-80
2023/10/08 06:36:13;;;;;;;28.75;10.93;;;;;;;19.68;41.65;100530.56;5050772;28;20147;-77
2023/10/08 06:38:49;;;;;;;24.88;11.52;;;;;;;19.80;41.70;100534.53;5032667;28;20431;-77
2023/10/08 06:41:17;;;;;;;20.67;10.15;;;;;;;19.74;41.49;100505.25;5050400;28;20025;-78
2023/10/08 06:44:02;;;;;;;42.05;10.75;;;;;;;19.88;41.41;100504.41;5050243;28;20025;-77
2023/10/08 06:46:28;;;;;;;26.10;10.77;;;;;;;20.08;41.37;100522.78;5050609;28;20033;-76
2023/10/08 06:48:54;;;;;;;32.78;13.52;;;;;;;20.19;40.76;100504.19;5049607;28;20032;-77
2023/10/08 06:51:20;;;;;;;38.25;13.10;;;;;;;20.28;40.51;100501.22;5013937;28;20070;-77
2023/10/08 06:53:47;;;;;;;35.63;13.68;;;;;;;20.36;40.42;100503.00;5049744;28;20040;-77
2023/10/08 06:56:15;;;;;;;39.38;12.13;;;;;;;20.48;40.32;100502.31;5050549;28;20023;-76
2023/10/08 06:58:47;;;;;;;24.48;11.43;;;;;;;20.54;40.01;100487.03;5049619;28;20036;-76
2023/10/08 07:01:13;;;;;;;36.67;11.63;;;;;;;20.72;39.85;100492.06;5049491;28;20032;-77
2023/10/08 07:03:38;;;;;;;32.25;8.90;;;;;;;20.74;39.24;100492.72;5049915;28;20033;-76
2023/10/08 07:06:16;;;;;;;41.53;8.73;;;;;;;20.81;38.42;100485.44;5050080;28;20106;-79
2023/10/08 07:08:43;;;;;;;62.28;10.38;;;;;;;20.74;38.12;100468.13;5050176;28;20090;-80
2023/10/08 07:11:11;;;;;;;36.88;7.53;;;;;;;20.77;38.19;100454.06;5049971;28;20021;-77
2023/10/08 07:13:37;;;;;;;56.90;8.80;;;;;;;21.01;38.01;100478.28;5039117;28;20400;-79
2023/10/08 07:16:04;;;;;;;32.65;8.07;;;;;;;21.05;37.75;100482.31;5049744;28;20021;-80
2023/10/08 07:18:31;;;;;;;69.90;9.55;;;;;;;21.12;37.69;100472.31;5050223;28;20044;-79
2023/10/08 07:21:00;;;;;;;37.80;8.10;;;;;;;21.23;37.43;100474.50;5046780;28;20017;-79
2023/10/08 07:23:29;;;;;;;45.47;8.68;;;;;;;21.32;37.36;100465.13;5049431;28;20033;-80
2023/10/08 07:26:11;;;;;;;37.33;8.18;;;;;;;21.38;37.16;100450.66;5050040;28;20721;-79
2023/10/08 07:28:40;;;;;;;14.82;6.07;;;;;;;21.49;37.11;100476.63;5050538;28;20021;-78
2023/10/08 07:31:16;;;;;;;39.95;9.10;;;;;;;21.50;36.76;100434.50;5049428;28;20519;-79
2023/10/08 07:33:43;;;;;;;37.92;7.40;;;;;;;21.62;36.79;100450.19;5050435;28;20064;-77
2023/10/08 07:36:14;;;;;;;43.95;8.13;;;;;;;21.77;36.68;100449.25;5049466;28;20029;-80
2023/10/08 07:38:43;;;;;;;37.13;9.05;;;;;;;21.82;36.60;100430.31;5049210;28;20048;-80
2023/10/08 07:41:15;;;;;;;24.60;7.55;;;;;;;21.92;36.60;100425.34;5049893;28;20025;-79
2023/10/08 07:43:46;;;;;;;25.58;8.57;;;;;;;22.03;36.77;100422.88;5050275;28;20091;-79
2023/10/08 07:46:13;;;;;;;42.83;8.35;;;;;;;22.05;36.53;100430.88;5049509;28;20040;-79
2023/10/08 07:48:44;;;;;;;25.65;7.82;;;;;;;22.21;36.07;100436.00;5049308;28;20021;-78
2023/10/08 07:51:10;;;;;;;66.57;10.20;;;;;;;22.36;35.97;100420.25;5049861;28;20029;-79
2023/10/08 07:53:38;;;;;;;49.67;9.73;;;;;;;22.45;35.97;100435.44;5049780;28;20023;-78
2023/10/08 07:56:06;;;;;;;80.05;12.30;;;;;;;22.42;35.45;100389.25;5049960;28;20044;-80
2023/10/08 07:58:38;;;;;;;58.10;10.25;;;;;;;22.69;35.53;100420.34;5049574;28;20057;-78
2023/10/08 08:01:08;;;;;;;57.78;10.30;;;;;;;22.83;35.32;100418.47;5049382;28;20550;-78
2023/10/08 08:03:36;;;;;;;82.35;12.93;;;;;;;22.86;35.21;100416.16;5049854;28;20055;-79
2023/10/08 08:06:05;;;;;;;72.63;9.93;;;;;;;22.88;35.14;100394.00;5049995;28;20026;-79
2023/10/08 08:08:31;;;;;;;65.30;10.43;;;;;;;23.09;34.78;100404.75;5049597;28;20056;-78
2023/10/08 08:11:03;;;;;;;59.08;9.60;;;;;;;23.08;34.71;100387.50;5050571;28;20413;-79
2023/10/08 08:13:29;;;;;;;59.78;10.77;;;;;;;23.14;34.67;100375.66;5033108;28;20083;-79
2023/10/08 08:15:58;;;;;;;55.15;9.93;;;;;;;23.37;34.83;100388.91;5049473;28;20447;-80
2023/10/08 08:18:25;;;;;;;43.60;9.93;;;;;;;23.52;34.46;100381.31;5049330;28;20033;-79
2023/10/08 08:20:50;;;;;;;53.60;10.25;;;;;;;23.62;34.08;100373.50;5048856;28;20075;-77
2023/10/08 08:23:16;;;;;;;43.45;8.90;;;;;;;23.70;34.40;100362.25;5048527;28;20029;-78
2023/10/08 08:25:45;;;;;;;43.83;10.43;;;;;;;23.80;33.72;100359.91;5028890;28;20032;-77
2023/10/08 08:28:17;;;;;;;32.95;9.43;;;;;;;23.82;33.51;100365.19;5029559;28;20068;-79
2023/10/08 08:30:46;;;;;;;36.67;9.30;;;;;;;23.93;33.75;100371.91;4999832;28;20122;-77
2023/10/08 08:33:13;;;;;;;46.30;11.10;;;;;;;24.04;33.69;100368.47;5049052;28;20051;-77
2023/10/08 08:35:39;;;;;;;48.28;10.63;;;;;;;24.20;32.74;100377.09;5049140;28;20107;-79
2023/10/08 08:38:05;;;;;;;46.50;9.93;;;;;;;24.19;32.79;100377.28;5048965;28;20017;-77
2023/10/08 08:40:32;;;;;;;44.00;10.57;;;;;;;24.31;33.00;100381.06;5048743;28;20163;-78
2023/10/08 08:43:02;;;;;;;50.10;8.32;;;;;;;24.47;32.85;100371.41;5049066;28;20082;-78
2023/10/08 08:45:31;;;;;;;48.95;9.63;;;;;;;24.55;32.79;100387.69;5048519;28;20033;-79
2023/10/08 08:47:57;;;;;;;42.15;8.20;;;;;;;24.60;32.08;100374.94;5048532;28;20103;-78
2023/10/08 08:50:23;;;;;;;37.83;9.63;;;;;;;24.73;32.24;100374.00;5050778;28;20129;-77
2023/10/08 08:52:49;;;;;;;27.70;8.85;;;;;;;24.75;31.64;100372.72;5052391;28;20044;-77
2023/10/08 08:55:14;;;;;;;25.40;8.57;;;;;;;24.82;31.75;100376.31;5052545;28;20033;-77
2023/10/08 08:57:44;;;;;;;23.20;8.25;;;;;;;24.74;31.74;100349.00;5052994;28;20087;-77
2023/10/08 09:00:14;;;;;;;25.02;8.15;;;;;;;24.94;31.68;100375.56;5052210;28;20066;-78
2023/10/08 09:02:40;;;;;;;26.30;8.43;;;;;;;24.91;31.84;100354.84;5051898;28;20468;-78
2023/10/08 09:05:13;;;;;;;28.85;8.82;;;;;;;25.08;31.34;100366.97;5051981;28;20613;-78
2023/10/08 09:08:06;;;;;;;25.48;8.13;;;;;;;25.18;31.38;100366.47;5052321;28;20068;-77
2023/10/08 09:10:37;;;;;;;;;;;;;;;25.22;31.03;100364.94;5052285;28;20082;-75
2023/10/08 09:13:04;;;;;;;25.73;7.95;;;;;;;25.19;30.96;100358.00;5051927;28;19909;-76
2023/10/08 09:15:30;;;;;;;41.47;9.32;;;;;;;25.21;31.05;100361.34;5051791;28;20059;-76
2023/10/08 09:17:56;;;;;;;29.15;8.73;;;;;;;25.31;30.88;100364.44;5052027;28;20480;-76
2023/10/08 09:20:22;;;;;;;22.55;7.82;;;;;;;25.41;31.06;100366.66;5051619;28;20021;-76
2023/10/08 09:23:08;;;;;;;18.98;7.20;;;;;;;25.58;30.78;100356.75;5052065;28;20473;-77
2023/10/08 09:25:34;;;;;;;26.88;7.88;;;;;;;25.66;30.83;100358.34;5051327;28;20098;-77
2023/10/08 09:27:59;;;;;;;27.48;7.10;;;;;;;25.81;30.40;100356.91;5051626;28;20025;-77
2023/10/08 09:30:25;;;;;;;25.52;8.02;;;;;;;25.90;30.17;100349.19;5040861;28;20045;-77
2023/10/08 09:32:51;;;;;;;40.05;8.70;;;;;;;25.93;29.88;100349.53;5051282;28;20064;-75
2023/10/08 09:35:18;;;;;;;26.98;7.43;;;;;;;25.93;29.57;100349.53;5050463;28;20032;-75
2023/10/08 09:37:45;;;;;;;29.00;6.93;;;;;;;25.98;29.34;100359.88;5051206;28;20086;-76
2023/10/08 09:40:11;;;;;;;22.02;7.95;;;;;;;25.90;29.52;100314.16;5050965;28;20411;-76
2023/10/08 09:42:38;;;;;;;21.85;7.32;;;;;;;26.02;29.71;100318.91;5050924;28;20547;-77
2023/10/08 09:45:05;;;;;;;40.70;8.40;;;;;;;26.19;29.43;100353.06;5051471;28;20124;-77
2023/10/08 09:47:38;;;;;;;28.15;8.65;;;;;;;26.16;29.15;100331.47;5016108;28;20047;-78
2023/10/08 09:50:07;;;;;;;;;;;;;;;26.28;28.97;100338.72;5052125;28;20106;-76
2023/10/08 09:52:44;;;;;;;28.42;7.50;;;;;;;26.29;29.07;100342.31;5051145;28;19974;-76
2023/10/08 09:55:10;;;;;;;22.05;8.40;;;;;;;26.29;30.83;100320.25;5051464;28;20111;-76
2023/10/08 09:57:36;;;;;;;21.88;8.93;;;;;;;26.44;29.02;100321.50;5051081;28;20087;-79
2023/10/08 10:02:51;;;;;;;29.10;7.47;;;;;;;26.62;28.67;100311.47;4969453;28;20097;-78
2023/10/08 10:05:24;;;;;;;19.02;7.50;;;;;;;26.73;28.54;100303.19;4970178;28;20031;-76
2023/10/08 10:07:49;;;;;;;28.65;9.07;;;;;;;26.85;28.27;100298.56;4969768;28;20046;-77
2023/10/08 10:10:31;;;;;;;36.63;8.20;;;;;;;26.87;28.18;100284.53;4969542;28;20582;-77
2023/10/08 10:13:00;;;;;;;26.08;7.65;;;;;;;26.83;28.23;100277.81;4953103;28;20380;-76
2023/10/08 10:15:27;;;;;;;21.30;7.53;;;;;;;26.86;27.96;100264.38;4969715;28;20031;-76
2023/10/08 10:17:52;;;;;;;20.65;7.00;;;;;;;26.98;27.89;100280.94;4969742;28;20500;-77
2023/10/08 10:20:20;;;;;;;36.15;7.93;;;;;;;27.07;27.85;100292.44;4953917;28;20031;-77
2023/10/08 10:22:45;;;;;;;16.27;7.53;;;;;;;27.16;27.56;100288.25;4969222;28;20081;-77
2023/10/08 10:25:17;;;;;;;19.52;7.07;;;;;;;27.12;28.01;100259.44;4953062;28;20027;-78
2023/10/08 10:28:06;;;;;;;17.05;6.32;;;;;;;27.35;27.69;100267.69;4969403;28;20119;-76
2023/10/08 10:30:32;;;;;;;20.95;7.40;;;;;;;27.43;27.43;100251.59;4957881;28;20055;-78
2023/10/08 10:33:01;;;;;;;38.20;6.90;;;;;;;27.58;27.02;100256.63;4950057;28;20530;-77
2023/10/08 10:35:27;;;;;;;23.63;7.97;;;;;;;27.53;26.66;100228.88;4950138;28;20541;-78
2023/10/08 10:37:55;;;;;;;30.42;7.38;;;;;;;27.55;26.90;100233.06;4950117;28;20110;-77
2023/10/08 10:40:39;;;;;;;20.98;7.28;;;;;;;27.92;26.68;100241.00;5003036;28;20116;-77
2023/10/08 10:43:15;;;;;;;32.80;7.78;;;;;;;28.05;26.49;100246.25;5030284;28;20026;-77
2023/10/08 10:45:47;;;;;;;19.52;6.38;;;;;;;28.23;26.42;100246.03;5030150;28;20040;-79
2023/10/08 10:48:21;;;;;;;25.10;6.20;;;;;;;28.31;26.07;100251.16;5030363;28;20018;-76
2023/10/08 10:51:07;;;;;;;25.10;6.70;;;;;;;28.22;25.89;100243.53;5030237;28;20347;-77
2023/10/08 10:53:44;;;;;;;32.35;7.22;;;;;;;28.21;26.34;100237.16;5030616;28;20041;-76
2023/10/08 10:56:18;;;;;;;22.65;6.35;;;;;;;28.22;26.41;100226.94;5029997;28;20096;-79
2023/10/08 10:58:53;;;;;;;25.35;6.25;;;;;;;28.23;25.96;100212.00;5030693;28;20025;-77
2023/10/08 11:01:23;;;;;;;25.35;6.40;;;;;;;28.36;26.28;100214.44;5030046;28;20488;-77
2023/10/08 11:03:53;;;;;;;21.55;5.85;;;;;;;28.37;25.82;100211.44;5030185;28;20043;-79
2023/10/08 11:06:22;;;;;;;27.35;7.22;;;;;;;28.32;25.76;100185.59;5030210;28;20037;-77
2023/10/08 11:08:52;;;;;;;21.88;6.50;;;;;;;28.53;26.05;100193.97;5029801;28;20440;-78
2023/10/08 11:11:29;;;;;;;29.38;6.43;;;;;;;28.67;26.12;100202.81;5030492;28;20067;-76
2023/10/08 11:14:00;;;;;;;26.52;5.45;;;;;;;28.67;25.98;100169.59;5029168;28;20021;-76
2023/10/08 11:16:26;;;;;;;27.45;5.75;;;;;;;28.84;25.92;100195.31;5029899;28;20041;-77
2023/10/08 11:18:57;;;;;;;45.33;7.80;;;;;;;28.86;25.68;100190.38;5012409;28;20113;-76
2023/10/08 11:21:24;;;;;;;33.42;6.90;;;;;;;28.81;25.73;100170.91;5030071;28;20541;-77
2023/10/08 11:23:58;;;;;;;18.95;5.43;;;;;;;28.95;25.78;100193.53;5030233;28;20029;-77
2023/10/08 11:26:35;;;;;;;35.88;6.50;;;;;;;28.91;25.57;100176.59;5029917;28;20033;-78
2023/10/08 11:29:03;;;;;;;25.63;7.30;;;;;;;29.13;25.61;100183.00;5029275;28;20029;-76
2023/10/08 11:31:29;;;;;;;28.48;7.18;;;;;;;29.21;25.65;100191.94;5048833;28;20060;-77
2023/10/08 11:34:08;;;;;;;27.13;5.30;;;;;;;29.25;25.45;100185.66;5049635;28;20566;-78
2023/10/08 11:36:48;;;;;;;22.42;6.10;;;;;;;29.26;25.64;100178.19;5049679;28;20119;-76
2023/10/08 11:39:21;;;;;;;48.70;6.20;;;;;;;29.37;25.40;100166.97;5031772;28;20033;-77
2023/10/08 11:42:25;;;;;;;30.98;7.80;;;;;;;29.49;25.60;100166.84;5049358;28;20116;-77
2023/10/08 11:44:52;;;;;;;24.75;5.70;;;;;;;29.53;25.32;100156.91;5049468;28;20035;-78
2023/10/08 11:47:21;;;;;;;29.40;5.85;;;;;;;29.65;25.27;100165.91;5031197;28;20032;-77
2023/10/08 11:50:09;;;;;;;18.13;5.65;;;;;;;29.43;25.18;100118.00;5047996;28;20036;-78
2023/10/08 11:52:35;;;;;;;17.95;5.82;;;;;;;29.91;25.38;100184.50;5049672;28;20032;-77
2023/10/08 11:55:01;;;;;;;32.53;5.68;;;;;;;29.99;24.84;100178.50;5049519;28;20107;-77
2023/10/08 11:57:27;;;;;;;20.17;5.45;;;;;;;29.99;24.81;100170.19;5048996;28;20057;-77
2023/10/08 11:59:54;;;;;;;26.73;6.25;;;;;;;30.05;24.84;100160.81;5031606;28;20139;-76
2023/10/08 12:02:22;;;;;;;31.15;7.45;;;;;;;30.09;24.88;100158.34;5049323;28;20037;-76
2023/10/08 12:04:48;;;;;;;35.28;7.03;;;;;;;30.10;25.03;100152.53;5048898;28;20036;-77
2023/10/08 12:07:17;;;;;;;27.67;5.75;;;;;;;29.97;24.85;100136.31;5047555;28;20052;-77
2023/10/08 12:09:43;;;;;;;25.23;5.50;;;;;;;30.05;25.42;100149.72;5048997;28;20029;-76
2023/10/08 12:12:09;;;;;;;29.35;7.63;;;;;;;30.06;25.22;100151.38;5048951;28;20036;-77